Time;durP1;ratioP1;P1;durP2;ratioP2;P2;SDS_P1;SDS_P2;PMS_P1;PMS_P2;Temp;Humidity;BMP_temperature;BMP_pressure;BME280_temperature;BME280_humidity;BME280_pressure;Samples;Min_cycle;Max_cycle;Signal;HPM_P1;HPM_P2
2022/11/03 00:00:27;;;;;;;;;;;18.00;88.20;;;;;;5122933;28;20020;-67
2022/11/03 00:02:52;;;;;;;;;;;18.00;88.10;;;;;;5132965;28;19931;-68
2022/11/03 00:08:02;;;;;;;;;;;18.10;88.20;;;;;;5129547;28;20365;-68
2022/11/03 00:10:29;;;;;;;;;;;17.70;87.90;;;;;;5115015;28;19930;-68
2022/11/03 00:12:54;;;;;;;;;;;18.00;88.50;;;;;;5125718;28;19924;-68
2022/11/03 00:15:20;;;;;;;;;;;17.80;87.90;;;;;;5119856;28;20270;-68
2022/11/03 00:17:46;;;;;;;;;;;18.00;88.00;;;;;;5123802;28;19946;-68
2022/11/03 00:20:12;;;;;;;;;;;17.80;87.80;;;;;;5112657;28;20046;-66
2022/11/03 00:22:37;;;;;;;;;;;17.90;87.90;;;;;;5114060;28;20010;-68
2022/11/03 00:25:03;;;;;;;;;;;17.70;87.80;;;;;;5113163;28;19932;-66
2022/11/03 00:27:29;;;;;;;;;;;17.90;87.90;;;;;;5126579;28;20380;-67
2022/11/03 00:29:54;;;;;;;;;;;17.80;88.40;;;;;;5112526;28;19927;-68
2022/11/03 00:32:20;;;;;;;;;;;17.70;87.80;;;;;;5128816;28;19930;-67
2022/11/03 00:34:45;;;;;;;;;;;17.80;87.80;;;;;;5123893;28;20392;-68
2022/11/03 00:37:11;;;;;;;;;;;18.10;87.90;;;;;;5130204;28;19924;-66
2022/11/03 00:39:37;;;;;;;;;;;17.60;87.60;;;;;;5111552;28;19923;-67
2022/11/03 00:42:02;;;;;;;;;;;17.90;87.80;;;;;;5127322;28;19982;-67
2022/11/03 00:44:28;;;;;;;;;;;17.80;87.80;;;;;;5113086;28;20388;-67
2022/11/03 00:46:54;;;;;;;;;;;17.50;87.60;;;;;;5109799;28;20270;-68
2022/11/03 00:49:19;;;;;;;;;;;17.80;87.70;;;;;;5132426;28;19958;-68
2022/11/03 00:51:45;;;;;;;;;;;17.60;87.60;;;;;;5114702;28;19930;-68
2022/11/03 00:54:10;;;;;;;;;;;17.90;87.80;;;;;;5128499;28;19924;-69
2022/11/03 00:56:37;;;;;;;;;;;17.90;87.80;;;;;;5113454;28;20448;-69
2022/11/03 00:59:03;;;;;;;;;;;17.80;87.80;;;;;;5132078;27;19930;-69
2022/11/03 01:01:32;;;;;;;;;;;18.00;87.80;;;;;;5118875;27;20303;-68
2022/11/03 01:06:49;;;;;;;;;;;18.30;87.80;;;;;;5117707;27;19975;-68
2022/11/03 01:09:24;;;;;;;;;;;17.80;87.90;;;;;;5118983;27;19923;-68
2022/11/03 01:12:00;;;;;;;;;;;17.40;87.50;;;;;;5087866;28;19931;-67
2022/11/03 01:14:36;;;;;;;;;;;17.90;87.80;;;;;;5099028;28;19923;-68
2022/11/03 01:17:06;;;;;;;;;;;17.60;87.60;;;;;;5125748;27;19931;-68
2022/11/03 01:19:31;;;;;;;;;;;17.80;87.70;;;;;;5099249;28;19931;-68
2022/11/03 01:21:57;;;;;;;;;;;17.60;87.60;;;;;;5134225;27;19927;-68
2022/11/03 01:24:23;;;;;;;;;;;17.60;87.60;;;;;;5119759;27;20052;-68
2022/11/03 01:26:48;;;;;;;;;;;17.70;87.60;;;;;;5118945;27;19931;-68
2022/11/03 01:29:14;;;;;;;;;;;17.70;87.60;;;;;;5103410;27;19930;-67
2022/11/03 01:31:40;;;;;;;;;;;17.70;87.60;;;;;;5097345;28;19924;-68
2022/11/03 01:34:05;;;;;;;;;;;17.70;87.50;;;;;;5115476;27;19967;-68
2022/11/03 01:36:31;;;;;;;;;;;17.80;87.60;;;;;;5113366;27;19926;-68
2022/11/03 01:38:57;;;;;;;;;;;17.40;87.30;;;;;;5117854;27;19962;-68
2022/11/03 01:41:23;;;;;;;;;;;17.70;87.60;;;;;;5130220;27;19927;-68
2022/11/03 01:43:50;;;;;;;;;;;17.60;87.50;;;;;;5117703;27;19924;-68
2022/11/03 01:46:16;;;;;;;;;;;17.60;87.50;;;;;;5114513;27;20404;-68
2022/11/03 01:49:02;;;;;;;;;;;17.80;87.60;;;;;;5117329;27;20369;-68
2022/11/03 01:51:28;;;;;;;;;;;17.60;87.40;;;;;;5098810;28;19928;-68
2022/11/03 01:53:53;;;;;;;;;;;17.70;87.50;;;;;;5110669;28;19931;-68
2022/11/03 01:56:19;;;;;;;;;;;17.80;87.60;;;;;;5125833;27;20010;-68
2022/11/03 01:58:45;;;;;;;;;;;17.70;87.50;;;;;;5115022;27;19971;-68
2022/11/03 02:01:11;;;;;;;;;;;17.50;87.40;;;;;;5134584;27;20456;-68
2022/11/03 02:03:38;;;;;;;;;;;17.80;87.60;;;;;;5135032;27;19928;-68
2022/11/03 02:06:04;;;;;;;;;;;17.80;87.60;;;;;;5089482;28;19969;-68
2022/11/03 02:08:29;;;;;;;;;;;17.80;87.60;;;;;;5097487;28;19978;-67
2022/11/03 02:10:55;;;;;;;;;;;17.60;87.50;;;;;;5126168;27;19946;-67
2022/11/03 02:13:21;;;;;;;;;;;17.50;87.40;;;;;;5099122;27;19923;-67
2022/11/03 02:15:51;;;;;;;;;;;17.70;88.00;;;;;;5123254;27;19931;-68
2022/11/03 02:18:17;;;;;;;;;;;17.90;87.60;;;;;;5117666;27;19977;-68
2022/11/03 02:20:42;;;;;;;;;;;17.50;88.00;;;;;;5117105;27;19924;-68
2022/11/03 02:23:25;;;;;;;;;;;17.50;87.40;;;;;;5116953;27;19920;-68
2022/11/03 02:25:57;;;;;;;;;;;17.70;87.60;;;;;;5117088;27;19976;-68
2022/11/03 02:28:27;;;;;;;;;;;17.60;87.50;;;;;;5097368;28;19930;-68
2022/11/03 02:30:58;;;;;;;;;;;17.60;87.50;;;;;;5107615;27;19924;-68
2022/11/03 02:33:33;;;;;;;;;;;17.40;87.50;;;;;;5101982;28;19924;-68
2022/11/03 02:36:12;;;;;;;;;;;17.60;87.50;;;;;;5095701;28;20301;-68
2022/11/03 02:38:40;;;;;;;;;;;17.70;87.70;;;;;;5094397;27;19935;-68
2022/11/03 02:41:06;;;;;;;;;;;17.50;87.60;;;;;;5114717;27;20055;-68
2022/11/03 02:43:32;;;;;;;;;;;17.60;87.60;;;;;;5134222;27;19923;-67
2022/11/03 02:45:57;;;;;;;;;;;17.50;87.60;;;;;;5098206;27;19959;-68
2022/11/03 02:48:23;;;;;;;;;;;17.20;87.50;;;;;;5133821;27;19946;-68
2022/11/03 02:50:49;;;;;;;;;;;17.60;87.70;;;;;;5135902;27;19969;-67
2022/11/03 02:53:14;;;;;;;;;;;17.40;87.70;;;;;;5115942;27;19927;-68
2022/11/03 02:55:44;;;;;;;;;;;17.50;87.70;;;;;;5127184;27;19924;-67
2022/11/03 02:58:34;;;;;;;;;;;17.70;87.80;;;;;;5083593;27;19974;-68
2022/11/03 03:01:02;;;;;;;;;;;17.30;87.60;;;;;;5112764;28;19931;-68
2022/11/03 03:03:30;;;;;;;;;;;17.60;87.80;;;;;;5125707;27;19992;-67
2022/11/03 03:05:56;;;;;;;;;;;17.70;87.80;;;;;;5116704;27;20010;-67
2022/11/03 03:08:22;;;;;;;;;;;17.60;87.80;;;;;;5111111;27;19923;-68
2022/11/03 03:10:48;;;;;;;;;;;17.70;87.80;;;;;;5126872;27;20392;-67
2022/11/03 03:13:16;;;;;;;;;;;17.70;88.10;;;;;;5133294;27;20334;-67
2022/11/03 03:15:49;;;;;;;;;;;17.70;88.20;;;;;;5114739;27;19924;-68
2022/11/03 03:18:18;;;;;;;;;;;17.30;87.50;;;;;;5115351;27;20343;-67
2022/11/03 03:20:47;;;;;;;;;;;17.30;87.50;;;;;;5132802;27;20445;-68
2022/11/03 03:23:20;;;;;;;;;;;17.50;87.60;;;;;;5114651;28;19928;-67
2022/11/03 03:25:49;;;;;;;;;;;17.60;86.90;;;;;;5096426;27;20345;-67
2022/11/03 03:28:16;;;;;;;;;;;17.60;87.70;;;;;;5114624;27;19926;-68
2022/11/03 03:30:42;;;;;;;;;;;17.80;88.30;;;;;;5115843;27;19924;-68
2022/11/03 03:33:08;;;;;;;;;;;17.60;87.70;;;;;;5123510;27;20080;-68
2022/11/03 03:35:34;;;;;;;;;;;17.50;87.80;;;;;;5128857;27;19923;-67
2022/11/03 03:38:04;;;;;;;;;;;17.50;87.70;;;;;;5112363;28;20388;-67
2022/11/03 03:40:34;;;;;;;;;;;17.80;87.90;;;;;;5114056;27;20010;-68
2022/11/03 03:42:59;;;;;;;;;;;17.30;87.60;;;;;;5112571;28;19935;-68
2022/11/03 03:45:25;;;;;;;;;;;17.40;87.70;;;;;;5123071;27;19999;-67
2022/11/03 03:47:51;;;;;;;;;;;17.50;87.80;;;;;;5112437;28;19927;-67
2022/11/03 03:50:16;;;;;;;;;;;17.50;87.80;;;;;;5109336;28;20392;-66
2022/11/03 03:52:42;;;;;;;;;;;17.40;87.70;;;;;;5114048;28;20333;-68
2022/11/03 03:55:11;;;;;;;;;;;17.60;87.90;;;;;;5114227;28;21830;-67
2022/11/03 03:57:38;;;;;;;;;;;;;;;;;;5132211;28;19927;-68
2022/11/03 04:00:05;;;;;;;;;;;17.50;87.80;;;;;;5113718;28;19924;-68
2022/11/03 04:02:30;;;;;;;;;;;17.60;87.90;;;;;;5125081;28;19931;-67
2022/11/03 04:04:57;;;;;;;;;;;17.30;87.70;;;;;;5131989;28;19924;-67
2022/11/03 04:10:07;;;;;;;;;;;17.80;88.00;;;;;;5132519;27;19984;-68
2022/11/03 04:23:29;;;;;;;;;;;17.50;87.90;;;;;;5133145;28;19977;-67
2022/11/03 04:25:55;;;;;;;;;;;17.60;87.90;;;;;;5128101;28;20021;-67
2022/11/03 04:28:21;;;;;;;;;;;17.50;87.80;;;;;;5130380;28;19924;-67
2022/11/03 04:30:46;;;;;;;;;;;17.40;87.80;;;;;;5103304;28;20011;-67
2022/11/03 04:33:16;;;;;;;;;;;17.40;87.80;;;;;;5107898;28;19923;-67
2022/11/03 04:35:43;;;;;;;;;;;17.50;88.00;;;;;;5132570;27;19931;-68
2022/11/03 04:38:17;;;;;;;;;;;17.40;87.90;;;;;;5107573;27;19923;-67
2022/11/03 04:40:44;;;;;;;;;;;17.50;88.00;;;;;;5115792;27;20006;-67
2022/11/03 04:43:10;;;;;;;;;;;17.60;88.10;;;;;;5115287;27;19923;-67
2022/11/03 04:45:37;;;;;;;;;;;17.60;88.10;;;;;;5108005;27;19929;-68
2022/11/03 04:48:08;;;;;;;;;;;17.40;88.00;;;;;;5115322;27;20347;-66
2022/11/03 04:50:34;;;;;;;;;;;17.40;87.90;;;;;;5116888;27;19920;-68
2022/11/03 04:52:59;;;;;;;;;;;17.30;87.90;;;;;;5116491;27;20390;-67
2022/11/03 04:55:25;;;;;;;;;;;17.30;88.00;;;;;;5102947;27;19924;-67
2022/11/03 04:57:53;;;;;;;;;;;17.30;88.00;;;;;;5118472;27;19924;-68
2022/11/03 05:00:19;;;;;;;;;;;17.40;88.00;;;;;;5134080;27;19923;-67
2022/11/03 05:02:45;;;;;;;;;;;17.30;87.90;;;;;;5116855;27;19924;-67
2022/11/03 05:05:17;;;;;;;;;;;17.60;88.10;;;;;;5135868;27;19923;-68
2022/11/03 05:07:43;;;;;;;;;;;17.60;88.10;;;;;;5117856;27;20010;-67
2022/11/03 05:10:10;;;;;;;;;;;17.50;88.10;;;;;;5110830;27;19967;-66
2022/11/03 05:12:36;;;;;;;;;;;17.60;88.10;;;;;;5114387;27;19975;-67
2022/11/03 05:15:02;;;;;;;;;;;17.50;88.00;;;;;;5107244;27;19923;-68
2022/11/03 05:17:28;;;;;;;;;;;17.50;88.00;;;;;;5098092;28;19946;-67
2022/11/03 05:19:56;;;;;;;;;;;17.50;88.10;;;;;;5116093;27;19928;-67
2022/11/03 05:22:21;;;;;;;;;;;17.60;88.70;;;;;;5118640;27;19924;-68
2022/11/03 05:24:47;;;;;;;;;;;;;;;;;;5116070;27;19935;-66
2022/11/03 05:27:19;;;;;;;;;;;17.20;87.90;;;;;;5134779;27;19924;-67
2022/11/03 05:29:45;;;;;;;;;;;17.60;88.10;;;;;;5134410;27;19930;-67
2022/11/03 05:32:11;;;;;;;;;;;17.40;88.10;;;;;;5115462;27;20322;-67
2022/11/03 05:34:41;;;;;;;;;;;17.60;88.20;;;;;;5098627;28;19957;-68
2022/11/03 05:37:19;;;;;;;;;;;17.60;88.10;;;;;;5105597;28;19924;-67
2022/11/03 05:39:45;;;;;;;;;;;17.50;88.10;;;;;;5131678;27;19924;-67
2022/11/03 05:42:25;;;;;;;;;;;17.30;88.00;;;;;;5110963;27;19923;-65
2022/11/03 05:44:51;;;;;;;;;;;17.50;88.10;;;;;;5099053;28;20010;-67
2022/11/03 05:47:20;;;;;;;;;;;17.40;88.10;;;;;;5123106;27;20257;-67
2022/11/03 05:49:46;;;;;;;;;;;17.60;88.20;;;;;;5125065;27;20296;-67
2022/11/03 05:52:12;;;;;;;;;;;17.30;88.00;;;;;;5117153;27;19923;-68
2022/11/03 05:54:38;;;;;;;;;;;17.70;88.20;;;;;;5098213;28;20296;-67
2022/11/03 05:57:07;;;;;;;;;;;17.40;88.10;;;;;;5124576;27;19923;-67
2022/11/03 05:59:33;;;;;;;;;;;17.40;88.10;;;;;;5115913;27;19919;-68
2022/11/03 06:01:59;;;;;;;;;;;17.40;88.20;;;;;;5133710;27;19950;-66
2022/11/03 06:04:32;;;;;;;;;;;17.30;88.20;;;;;;5122266;27;19923;-68
2022/11/03 06:07:02;;;;;;;;;;;17.50;88.40;;;;;;5086608;28;19980;-67
2022/11/03 06:09:27;;;;;;;;;;;17.50;88.40;;;;;;5116211;28;19934;-67
2022/11/03 06:11:54;;;;;;;;;;;17.30;88.20;;;;;;5107540;27;19924;-67
2022/11/03 06:14:21;;;;;;;;;;;17.40;88.30;;;;;;5132148;27;20412;-67
2022/11/03 06:16:47;;;;;;;;;;;17.20;88.20;;;;;;5105950;28;19931;-67
2022/11/03 06:19:16;;;;;;;;;;;17.20;88.20;;;;;;5112022;27;19923;-68
2022/11/03 06:21:42;;;;;;;;;;;17.20;88.20;;;;;;5134045;27;19964;-68
2022/11/03 06:24:08;;;;;;;;;;;17.30;88.20;;;;;;5133847;27;19928;-68
2022/11/03 06:26:34;;;;;;;;;;;17.30;88.30;;;;;;5113141;28;19930;-68
2022/11/03 06:28:59;;;;;;;;;;;17.10;88.20;;;;;;5099805;28;20006;-67
2022/11/03 06:31:28;;;;;;;;;;;17.30;88.30;;;;;;5115700;27;19982;-67
2022/11/03 06:33:54;;;;;;;;;;;17.20;88.20;;;;;;5115630;27;20023;-67
2022/11/03 06:36:23;;;;;;;;;;;17.20;88.30;;;;;;5130069;27;20335;-67
2022/11/03 06:38:50;;;;;;;;;;;17.30;88.30;;;;;;5129479;27;19930;-67
2022/11/03 06:41:25;;;;;;;;;;;17.20;88.30;;;;;;5133004;27;19930;-68
2022/11/03 06:43:51;;;;;;;;;;;17.20;88.30;;;;;;5133921;27;20376;-67
2022/11/03 06:46:16;;;;;;;;;;;17.30;88.30;;;;;;5112614;28;20022;-67
2022/11/03 06:48:42;;;;;;;;;;;17.70;88.50;;;;;;5126032;27;19993;-68
2022/11/03 06:51:13;;;;;;;;;;;17.10;88.20;;;;;;5102126;28;19930;-68
2022/11/03 06:53:39;;;;;;;;;;;17.10;88.30;;;;;;5125463;27;19951;-67
2022/11/03 06:56:08;;;;;;;;;;;17.30;88.40;;;;;;5133351;27;19923;-68
2022/11/03 06:58:35;;;;;;;;;;;17.10;88.20;;;;;;5129517;27;19920;-68
2022/11/03 07:01:02;;;;;;;;;;;17.20;88.20;;;;;;5133572;27;19923;-68
2022/11/03 07:03:30;;;;;;;;;;;17.50;88.50;;;;;;5115961;27;20402;-67
2022/11/03 07:05:59;;;;;;;;;;;17.50;88.40;;;;;;5132223;27;20411;-68
2022/11/03 07:08:29;;;;;;;;;;;17.30;88.40;;;;;;5116386;27;19923;-67
2022/11/03 07:10:59;;;;;;;;;;;17.50;88.50;;;;;;5116807;27;19923;-68
2022/11/03 07:13:26;;;;;;;;;;;17.50;88.60;;;;;;5116947;27;20340;-68
2022/11/03 07:15:51;;;;;;;;;;;17.50;88.60;;;;;;5115895;27;19929;-68
2022/11/03 07:18:28;;;;;;;;;;;17.40;88.50;;;;;;5132357;27;20444;-66
2022/11/03 07:20:54;;;;;;;;;;;17.50;88.60;;;;;;5117176;27;20014;-67
2022/11/03 07:23:27;;;;;;;;;;;17.30;88.50;;;;;;5116628;27;20376;-66
2022/11/03 07:25:53;;;;;;;;;;;17.60;87.70;;;;;;5112662;27;19977;-66
2022/11/03 07:28:23;;;;;;;;;;;17.30;88.80;;;;;;5113567;28;19924;-66
2022/11/03 07:30:49;;;;;;;;;;;17.60;88.60;;;;;;5104351;27;20411;-66
2022/11/03 07:33:18;;;;;;;;;;;17.60;88.50;;;;;;5116517;27;19923;-66
2022/11/03 07:35:44;;;;;;;;;;;17.60;88.50;;;;;;5096372;27;19924;-66
2022/11/03 07:38:15;;;;;;;;;;;17.50;88.70;;;;;;5096211;28;19920;-66
2022/11/03 07:40:40;;;;;;;;;;;17.50;88.50;;;;;;5111567;28;19924;-66
2022/11/03 07:43:27;;;;;;;;;;;17.40;88.40;;;;;;5102424;27;19972;-66
2022/11/03 07:45:53;;;;;;;;;;;17.60;87.60;;;;;;5099927;27;20014;-66
2022/11/03 07:48:20;;;;;;;;;;;17.40;88.40;;;;;;5116755;28;19919;-66
2022/11/03 07:50:46;;;;;;;;;;;17.60;88.90;;;;;;5133423;27;19923;-67
2022/11/03 07:53:13;;;;;;;;;;;17.70;88.50;;;;;;5131924;27;19923;-69
2022/11/03 07:55:38;;;;;;;;;;;17.70;88.50;;;;;;5115024;28;20332;-70
2022/11/03 07:58:19;;;;;;;;;;;17.80;88.60;;;;;;5124386;28;20023;-70
2022/11/03 08:00:45;;;;;;;;;;;17.50;88.50;;;;;;5116646;28;19923;-68
2022/11/03 08:03:16;;;;;;;;;;;17.60;88.60;;;;;;5127770;28;20403;-70
2022/11/03 08:05:42;;;;;;;;;;;17.70;88.50;;;;;;5104959;28;19924;-68
2022/11/03 08:08:07;;;;;;;;;;;17.60;88.50;;;;;;5126982;27;19924;-68
2022/11/03 08:10:34;;;;;;;;;;;17.60;88.50;;;;;;5137070;27;19931;-67
2022/11/03 08:13:00;;;;;;;;;;;17.80;88.60;;;;;;5133157;27;19924;-67
2022/11/03 08:15:26;;;;;;;;;;;17.50;88.50;;;;;;5118338;27;19930;-67
2022/11/03 08:17:52;;;;;;;;;;;17.90;88.60;;;;;;5116818;28;20292;-68
2022/11/03 08:20:18;;;;;;;;;;;17.70;88.80;;;;;;5100136;28;19948;-68
2022/11/03 08:22:44;;;;;;;;;;;17.50;88.70;;;;;;5099796;28;19927;-69
2022/11/03 08:25:09;;;;;;;;;;;17.50;88.80;;;;;;5133912;27;19924;-68
2022/11/03 08:27:35;;;;;;;;;;;17.70;88.90;;;;;;5131294;27;20036;-68
2022/11/03 08:30:01;;;;;;;;;;;17.90;89.00;;;;;;5132981;27;19924;-67
2022/11/03 08:32:26;;;;;;;;;;;17.50;89.20;;;;;;5116759;28;19935;-69
2022/11/03 08:34:52;;;;;;;;;;;18.10;89.20;;;;;;5116958;28;19931;-68
2022/11/03 08:37:18;;;;;;;;;;;17.80;88.90;;;;;;5116521;28;19924;-69
2022/11/03 08:39:43;;;;;;;;;;;17.80;89.00;;;;;;5116613;28;19924;-68
2022/11/03 08:42:09;;;;;;;;;;;17.80;89.00;;;;;;5116770;28;19929;-67
2022/11/03 08:44:34;;;;;;;;;;;17.70;89.10;;;;;;5116388;28;20381;-68
2022/11/03 08:47:00;;;;;;;;;;;17.80;89.00;;;;;;5121177;27;19924;-67
2022/11/03 08:49:26;;;;;;;;;;;17.80;89.00;;;;;;5135603;27;19923;-71
2022/11/03 08:51:52;;;;;;;;;;;17.80;89.00;;;;;;5126162;27;19923;-68
2022/11/03 08:54:17;;;;;;;;;;;17.90;89.10;;;;;;5136959;27;19930;-67
2022/11/03 08:56:45;;;;;;;;;;;18.00;89.50;;;;;;5119582;27;19924;-67
2022/11/03 08:59:10;;;;;;;;;;;17.70;89.10;;;;;;5118956;27;19965;-67
2022/11/03 09:01:36;;;;;;;;;;;17.60;89.00;;;;;;5115446;28;20339;-68
2022/11/03 09:04:02;;;;;;;;;;;17.90;89.20;;;;;;5133199;27;20333;-68
2022/11/03 09:06:28;;;;;;;;;;;17.90;89.30;;;;;;5119123;27;19923;-69
2022/11/03 09:08:53;;;;;;;;;;;17.90;89.30;;;;;;5136670;27;19976;-70
2022/11/03 09:11:19;;;;;;;;;;;17.60;89.20;;;;;;5135728;27;20296;-68
2022/11/03 09:13:45;;;;;;;;;;;17.60;89.20;;;;;;5137682;27;19924;-67
2022/11/03 09:16:10;;;;;;;;;;;17.90;89.40;;;;;;5136049;27;19945;-70
2022/11/03 09:18:36;;;;;;;;;;;17.60;89.40;;;;;;5136188;27;19923;-67
2022/11/03 09:21:02;;;;;;;;;;;17.90;89.50;;;;;;5131878;27;19966;-68
2022/11/03 09:23:27;;;;;;;;;;;18.10;89.60;;;;;;5123526;27;20284;-68
2022/11/03 09:25:53;;;;;;;;;;;18.00;89.50;;;;;;5136491;27;19924;-68
2022/11/03 09:28:19;;;;;;;;;;;17.90;89.70;;;;;;5137682;27;19924;-67
2022/11/03 09:30:44;;;;;;;;;;;17.90;89.70;;;;;;5135953;27;19929;-68
2022/11/03 09:33:10;;;;;;;;;;;17.80;89.70;;;;;;5135021;27;20075;-71
2022/11/03 09:35:35;;;;;;;;;;;17.70;89.50;;;;;;5137224;27;20278;-68
2022/11/03 09:38:01;;;;;;;;;;;17.80;89.40;;;;;;5132853;27;19926;-68
2022/11/03 09:40:27;;;;;;;;;;;17.60;89.40;;;;;;5098402;28;19928;-68
2022/11/03 09:42:52;;;;;;;;;;;18.00;89.80;;;;;;5115963;28;20456;-68
2022/11/03 09:45:18;;;;;;;;;;;18.10;89.70;;;;;;5116047;27;19923;-68
2022/11/03 09:47:45;;;;;;;;;;;18.00;89.70;;;;;;5119295;27;19931;-68
2022/11/03 09:50:15;;;;;;;;;;;18.00;89.80;;;;;;5118842;27;20018;-68
2022/11/03 09:52:41;;;;;;;;;;;17.90;88.70;;;;;;5131537;27;19950;-68
2022/11/03 09:55:14;;;;;;;;;;;18.00;89.70;;;;;;5123563;27;19928;-68
2022/11/03 09:57:40;;;;;;;;;;;18.00;89.70;;;;;;5116240;28;19931;-68
2022/11/03 10:00:07;;;;;;;;;;;18.00;89.90;;;;;;5114798;28;19924;-68
2022/11/03 10:02:34;;;;;;;;;;;18.10;89.90;;;;;;5098393;28;19947;-67
2022/11/03 10:05:00;;;;;;;;;;;18.10;90.00;;;;;;5105955;27;20406;-67
2022/11/03 10:07:26;;;;;;;;;;;18.20;90.10;;;;;;5134842;27;19966;-68
2022/11/03 10:09:51;;;;;;;;;;;17.90;90.00;;;;;;5118259;27;19931;-68
2022/11/03 10:12:17;;;;;;;;;;;18.20;90.00;;;;;;5117877;27;19927;-68
2022/11/03 10:14:43;;;;;;;;;;;18.20;90.00;;;;;;5134095;27;19924;-68
2022/11/03 10:17:12;;;;;;;;;;;18.10;89.90;;;;;;5116738;27;20392;-68
2022/11/03 10:19:38;;;;;;;;;;;18.10;89.90;;;;;;5115242;27;19924;-70
2022/11/03 10:22:04;;;;;;;;;;;18.20;90.00;;;;;;5131117;27;19998;-68
2022/11/03 10:24:29;;;;;;;;;;;18.20;90.00;;;;;;5102356;28;20353;-67
2022/11/03 10:26:55;;;;;;;;;;;18.00;89.90;;;;;;5131817;27;19924;-69
2022/11/03 10:29:21;;;;;;;;;;;18.10;90.00;;;;;;5134885;27;20368;-68
2022/11/03 10:31:50;;;;;;;;;;;18.00;89.90;;;;;;5133731;27;19927;-68
2022/11/03 10:34:22;;;;;;;;;;;17.80;90.10;;;;;;5130625;27;19924;-68
2022/11/03 10:36:48;;;;;;;;;;;18.10;89.10;;;;;;5135001;27;20006;-67
2022/11/03 10:39:24;;;;;;;;;;;18.20;90.10;;;;;;5130590;27;19962;-67
2022/11/03 10:41:59;;;;;;;;;;;18.60;90.30;;;;;;5110494;27;20438;-68
2022/11/03 10:44:26;;;;;;;;;;;18.30;90.10;;;;;;5118471;27;20395;-68
2022/11/03 10:46:55;;;;;;;;;;;18.20;90.20;;;;;;5117596;27;19923;-68
2022/11/03 10:49:20;;;;;;;;;;;18.40;89.70;;;;;;5131330;27;19924;-67
2022/11/03 10:51:47;;;;;;;;;;;18.30;90.20;;;;;;5106517;27;20006;-66
2022/11/03 10:54:13;;;;;;;;;;;18.30;90.40;;;;;;5112525;28;19931;-66
2022/11/03 10:56:39;;;;;;;;;;;18.40;90.50;;;;;;5114380;28;20022;-66
2022/11/03 10:59:04;;;;;;;;;;;18.30;90.20;;;;;;5115119;28;20038;-66
2022/11/03 11:01:30;;;;;;;;;;;18.30;90.30;;;;;;5117187;27;20018;-67
2022/11/03 11:03:56;;;;;;;;;;;18.30;90.30;;;;;;5113575;28;19924;-65
2022/11/03 11:06:23;;;;;;;;;;;18.30;90.30;;;;;;5096959;28;19920;-67
2022/11/03 11:08:49;;;;;;;;;;;18.20;90.20;;;;;;5079730;28;19965;-66
2022/11/03 11:11:18;;;;;;;;;;;18.40;90.20;;;;;;5111599;27;19973;-66
2022/11/03 11:13:44;;;;;;;;;;;18.10;89.50;;;;;;5069434;28;19969;-67
2022/11/03 11:16:39;;;;;;;;;;;18.50;90.40;;;;;;5101654;28;20011;-67
2022/11/03 11:19:04;;;;;;;;;;;18.50;89.70;;;;;;5054839;28;19924;-66
2022/11/03 11:21:39;;;;;;;;;;;18.40;90.30;;;;;;5037835;28;19962;-67
2022/11/03 11:24:08;;;;;;;;;;;18.80;89.80;;;;;;5055326;28;20034;-66
2022/11/03 11:26:34;;;;;;;;;;;18.50;89.70;;;;;;5052471;28;19924;-67
2022/11/03 11:29:06;;;;;;;;;;;18.40;90.30;;;;;;5054609;28;20491;-67
2022/11/03 11:31:32;;;;;;;;;;;18.40;89.60;;;;;;5071056;28;19924;-66
2022/11/03 11:34:09;;;;;;;;;;;18.40;90.20;;;;;;5049777;28;20016;-66
2022/11/03 11:36:35;;;;;;;;;;;18.40;89.70;;;;;;5055345;28;19947;-66
2022/11/03 11:39:01;;;;;;;;;;;18.50;90.40;;;;;;5055068;28;20298;-66
2022/11/03 11:41:46;;;;;;;;;;;18.30;90.40;;;;;;5054162;28;19979;-66
2022/11/03 11:44:30;;;;;;;;;;;18.50;89.70;;;;;;5070896;28;19924;-67
2022/11/03 11:46:57;;;;;;;;;;;18.40;89.60;;;;;;5054915;28;20019;-66
2022/11/03 11:49:22;;;;;;;;;;;18.40;90.30;;;;;;5071813;28;19924;-66
2022/11/03 11:51:48;;;;;;;;;;;18.70;90.30;;;;;;5054397;28;20027;-66
2022/11/03 11:54:15;;;;;;;;;;;18.60;90.20;;;;;;5054944;28;19930;-66
2022/11/03 11:56:45;;;;;;;;;;;18.60;90.40;;;;;;5113300;28;20342;-67
2022/11/03 11:59:28;;;;;;;;;;;18.30;90.30;;;;;;5112979;28;19931;-66
2022/11/03 12:01:55;;;;;;;;;;;19.60;90.00;;;;;;5112013;28;20393;-66
2022/11/03 12:04:25;;;;;;;;;;;18.80;90.40;;;;;;5095024;28;20377;-67
2022/11/03 12:06:51;;;;;;;;;;;18.70;90.20;;;;;;5113121;28;20014;-67
2022/11/03 12:09:17;;;;;;;;;;;18.50;90.10;;;;;;5114321;28;20018;-67
2022/11/03 12:12:03;;;;;;;;;;;18.40;90.30;;;;;;5094348;28;20307;-67
2022/11/03 12:14:35;;;;;;;;;;;18.80;90.30;;;;;;5110178;28;19982;-66
2022/11/03 12:17:13;;;;;;;;;;;18.60;89.30;;;;;;5111929;28;20284;-67
2022/11/03 12:19:39;;;;;;;;;;;18.50;89.20;;;;;;5113997;28;20022;-66
2022/11/03 12:22:06;;;;;;;;;;;18.70;90.30;;;;;;5112770;28;20372;-66
2022/11/03 12:24:31;;;;;;;;;;;18.80;90.30;;;;;;5113079;28;20296;-66
2022/11/03 12:27:01;;;;;;;;;;;18.70;90.10;;;;;;5113208;28;19924;-66
2022/11/03 12:29:26;;;;;;;;;;;18.70;89.20;;;;;;5095673;28;19928;-65
2022/11/03 12:31:52;;;;;;;;;;;18.40;90.10;;;;;;5112620;28;19931;-67
2022/11/03 12:34:18;;;;;;;;;;;18.40;89.90;;;;;;5089523;28;19924;-66
2022/11/03 12:36:43;;;;;;;;;;;18.60;90.00;;;;;;5112989;28;20411;-67
2022/11/03 12:39:09;;;;;;;;;;;18.60;90.30;;;;;;5112181;28;20281;-66
2022/11/03 12:41:35;;;;;;;;;;;18.60;90.00;;;;;;5111692;28;19931;-66
2022/11/03 12:44:00;;;;;;;;;;;18.50;89.90;;;;;;5113663;28;19924;-67
2022/11/03 12:46:26;;;;;;;;;;;18.80;90.00;;;;;;5097783;28;19928;-67
2022/11/03 12:48:51;;;;;;;;;;;18.50;90.00;;;;;;5110664;28;20014;-67
2022/11/03 12:51:21;;;;;;;;;;;18.80;90.20;;;;;;5105287;28;19967;-66
2022/11/03 12:53:47;;;;;;;;;;;18.20;88.70;;;;;;5111653;28;19928;-68
2022/11/03 12:56:13;;;;;;;;;;;18.70;90.00;;;;;;5116526;28;19931;-67
2022/11/03 12:58:39;;;;;;;;;;;18.40;90.00;;;;;;5113573;28;20335;-67
2022/11/03 13:01:04;;;;;;;;;;;18.10;89.40;;;;;;5116135;28;19928;-67
2022/11/03 13:03:31;;;;;;;;;;;18.30;89.50;;;;;;5098740;28;19977;-66
2022/11/03 13:05:57;;;;;;;;;;;17.90;89.60;;;;;;5090172;28;19928;-67
2022/11/03 13:08:23;;;;;;;;;;;18.20;90.10;;;;;;5098934;28;19970;-66
2022/11/03 13:10:49;;;;;;;;;;;18.20;90.00;;;;;;5114898;28;19928;-67
2022/11/03 13:13:15;;;;;;;;;;;18.10;90.00;;;;;;5112296;28;19924;-67
2022/11/03 13:15:40;;;;;;;;;;;18.40;90.10;;;;;;5114614;28;19924;-67
2022/11/03 13:18:06;;;;;;;;;;;18.10;90.00;;;;;;5112531;28;20369;-65
2022/11/03 13:20:32;;;;;;;;;;;18.00;89.90;;;;;;5115157;28;19923;-66
2022/11/03 13:22:57;;;;;;;;;;;18.20;89.70;;;;;;5097687;28;19923;-67
2022/11/03 13:25:23;;;;;;;;;;;18.30;89.60;;;;;;5110353;28;19924;-66
2022/11/03 13:27:52;;;;;;;;;;;18.00;89.40;;;;;;5100357;28;19931;-67
2022/11/03 13:30:18;;;;;;;;;;;18.10;89.80;;;;;;5112881;28;19930;-67
2022/11/03 13:32:44;;;;;;;;;;;18.10;90.00;;;;;;5110772;28;19932;-67
2022/11/03 13:35:10;;;;;;;;;;;17.80;89.40;;;;;;5109787;28;20081;-67
2022/11/03 13:37:35;;;;;;;;;;;17.80;89.40;;;;;;5093073;28;19927;-66
2022/11/03 13:40:01;;;;;;;;;;;18.00;89.60;;;;;;5112020;28;19931;-67
2022/11/03 13:42:27;;;;;;;;;;;17.90;90.00;;;;;;5117711;28;19928;-67
2022/11/03 13:44:52;;;;;;;;;;;17.90;90.10;;;;;;5096259;28;20453;-67
2022/11/03 13:47:18;;;;;;;;;;;17.90;90.10;;;;;;5096394;28;19928;-67
2022/11/03 13:49:43;;;;;;;;;;;18.10;90.00;;;;;;5094488;28;20071;-67
2022/11/03 13:52:09;;;;;;;;;;;18.00;90.10;;;;;;5111697;28;20008;-67
2022/11/03 13:54:35;;;;;;;;;;;17.80;90.00;;;;;;5113499;28;19975;-67
2022/11/03 13:57:00;;;;;;;;;;;17.90;89.90;;;;;;5113197;28;20444;-67
2022/11/03 13:59:26;;;;;;;;;;;18.10;90.10;;;;;;5115354;28;19967;-67
2022/11/03 14:01:51;;;;;;;;;;;17.80;90.00;;;;;;5116481;28;20365;-68
2022/11/03 14:04:17;;;;;;;;;;;18.00;90.00;;;;;;5114524;28;19923;-67
2022/11/03 14:06:43;;;;;;;;;;;17.90;89.70;;;;;;5095796;28;20037;-67
2022/11/03 14:09:09;;;;;;;;;;;18.10;89.70;;;;;;5111232;28;19924;-66
2022/11/03 14:14:19;;;;;;;;;;;17.70;89.30;;;;;;5113323;28;19924;-66
2022/11/03 14:16:44;;;;;;;;;;;17.90;89.70;;;;;;5114015;28;19946;-66
2022/11/03 14:19:10;;;;;;;;;;;17.90;89.40;;;;;;5114834;28;19923;-66
2022/11/03 14:21:41;;;;;;;;;;;17.80;89.40;;;;;;5116132;28;20007;-66
2022/11/03 14:24:07;;;;;;;;;;;17.80;89.30;;;;;;5111061;28;20293;-67
2022/11/03 14:26:33;;;;;;;;;;;17.90;89.60;;;;;;5095467;28;19931;-67
2022/11/03 14:28:58;;;;;;;;;;;17.50;89.20;;;;;;5093869;28;20022;-67
2022/11/03 14:31:24;;;;;;;;;;;17.70;89.60;;;;;;5112089;28;20068;-66
2022/11/03 14:33:49;;;;;;;;;;;17.70;89.40;;;;;;5113218;28;20015;-66
2022/11/03 14:36:15;;;;;;;;;;;17.70;89.30;;;;;;5112522;28;19945;-66
2022/11/03 14:38:41;;;;;;;;;;;17.80;89.30;;;;;;5106245;28;19924;-66
2022/11/03 14:43:51;;;;;;;;;;;17.80;88.20;;;;;;5109631;27;20285;-67